createdAt,value
2023-03-30T00:01:44.814Z,0.70
2023-03-30T00:04:13.338Z,0.65
2023-03-30T00:06:42.429Z,0.65
2023-03-30T00:09:10.847Z,0.57
2023-03-30T00:11:38.767Z,0.43
2023-03-30T00:14:06.776Z,0.26
2023-03-30T00:16:36.222Z,0.21
2023-03-30T00:19:04.257Z,0.14
2023-03-30T00:21:32.204Z,0.11
2023-03-30T00:24:00.184Z,0.03
2023-03-30T00:26:28.455Z,-0.04
2023-03-30T00:28:56.501Z,0.02
2023-03-30T00:31:24.492Z,-0.03
2023-03-30T00:33:53.807Z,-0.04
2023-03-30T00:36:22.486Z,-0.11
2023-03-30T00:38:50.562Z,-0.17
2023-03-30T00:41:18.552Z,-0.19
2023-03-30T00:43:56.976Z,-0.19
2023-03-30T00:46:25.031Z,-0.24
2023-03-30T00:48:57.828Z,-0.18
2023-03-30T00:51:26.515Z,-0.19
2023-03-30T00:53:55.900Z,-0.16
2023-03-30T00:56:27.184Z,-0.13
2023-03-30T00:58:55.351Z,-0.15
2023-03-30T01:01:29.111Z,-0.23
2023-03-30T01:04:00.043Z,-0.27
2023-03-30T01:06:30.225Z,-0.41
2023-03-30T01:08:59.038Z,-0.48
2023-03-30T01:11:27.811Z,-0.58
2023-03-30T01:13:59.363Z,-0.65
2023-03-30T01:16:29.505Z,-0.69
2023-03-30T01:19:02.062Z,-0.77
2023-03-30T01:21:51.439Z,-0.69
2023-03-30T01:24:53.498Z,-0.63
2023-03-30T01:27:46.310Z,-0.60
2023-03-30T01:30:38.316Z,-0.63
2023-03-30T01:33:21.558Z,-0.63
2023-03-30T01:36:28.596Z,-0.66
2023-03-30T01:39:35.152Z,-0.78
2023-03-30T01:42:06.456Z,-0.80
2023-03-30T01:44:37.523Z,-0.84
2023-03-30T01:47:08.718Z,-0.91
2023-03-30T01:49:40.708Z,-0.95
2023-03-30T01:52:13.102Z,-0.88
2023-03-30T01:54:44.230Z,-0.92
2023-03-30T01:57:14.297Z,-0.98
2023-03-30T01:59:44.368Z,-1.00
2023-03-30T02:02:12.406Z,-1.02
2023-03-30T02:04:41.959Z,-1.06
2023-03-30T02:07:11.780Z,-1.10
2023-03-30T02:09:40.059Z,-1.11
2023-03-30T02:12:09.527Z,-1.11
2023-03-30T02:14:37.613Z,-1.10
2023-03-30T02:17:07.544Z,-1.11
2023-03-30T02:19:37.952Z,-1.11
2023-03-30T02:22:06.384Z,-1.11
2023-03-30T02:24:34.304Z,-1.09
2023-03-30T02:27:02.736Z,-1.14
2023-03-30T02:29:32.026Z,-1.18
2023-03-30T02:32:00.124Z,-1.21
2023-03-30T02:34:38.360Z,-1.27
2023-03-30T02:37:14.703Z,-1.29
2023-03-30T02:39:48.966Z,-1.26
2023-03-30T02:42:27.166Z,-1.28
2023-03-30T02:45:01.205Z,-1.25
2023-03-30T02:47:32.346Z,-1.28
2023-03-30T02:50:01.601Z,-1.27
2023-03-30T02:52:40.876Z,-1.33
2023-03-30T02:55:14.516Z,-1.35
2023-03-30T02:57:47.858Z,-1.27
2023-03-30T03:00:18.738Z,-1.23
2023-03-30T03:02:49.421Z,-1.26
2023-03-30T03:05:17.605Z,-1.19
2023-03-30T03:07:48.177Z,-1.17
2023-03-30T03:10:16.227Z,-1.18
2023-03-30T03:12:44.213Z,-1.23
2023-03-30T03:15:13.902Z,-1.22
2023-03-30T03:17:45.386Z,-1.22
2023-03-30T03:20:13.864Z,-1.21
2023-03-30T03:22:41.831Z,-1.20
2023-03-30T03:25:10.490Z,-1.21
2023-03-30T03:27:38.452Z,-1.22
2023-03-30T03:30:07.225Z,-1.24
2023-03-30T03:32:35.241Z,-1.28
2023-03-30T03:35:04.856Z,-1.32
2023-03-30T03:37:33.243Z,-1.31
2023-03-30T03:40:01.252Z,-1.35
2023-03-30T03:42:29.216Z,-1.37
2023-03-30T03:44:57.195Z,-1.36
2023-03-30T03:47:25.297Z,-1.43
2023-03-30T03:49:53.308Z,-1.43
2023-03-30T03:52:22.743Z,-1.48
2023-03-30T03:54:50.673Z,-1.50
2023-03-30T03:57:18.675Z,-1.54
2023-03-30T03:59:46.735Z,-1.57
2023-03-30T04:02:14.686Z,-1.58
2023-03-30T04:04:42.711Z,-1.58
2023-03-30T04:07:11.744Z,-1.56
2023-03-30T04:09:41.096Z,-1.54
2023-03-30T04:12:09.138Z,-1.55
2023-03-30T04:14:37.124Z,-1.52
2023-03-30T04:17:06.512Z,-1.48
2023-03-30T04:19:36.200Z,-1.52
2023-03-30T04:22:06.286Z,-1.46
2023-03-30T04:24:35.627Z,-1.45
2023-03-30T04:27:05.152Z,-1.46
2023-03-30T04:29:33.178Z,-1.42
2023-03-30T04:32:03.773Z,-1.36
2023-03-30T04:34:31.768Z,-1.40
2023-03-30T04:36:59.668Z,-1.41
2023-03-30T04:39:30.444Z,-1.35
2023-03-30T04:41:58.486Z,-1.29
2023-03-30T04:44:27.823Z,-1.14
2023-03-30T04:46:56.547Z,-1.06
2023-03-30T04:49:24.466Z,-0.76
2023-03-30T04:51:53.164Z,0.99
2023-03-30T04:54:21.392Z,3.18
2023-03-30T04:56:49.657Z,4.68
2023-03-30T04:59:17.665Z,5.79
2023-03-30T05:01:47.085Z,6.49
2023-03-30T05:04:15.131Z,6.52
2023-03-30T05:06:44.267Z,6.70
2023-03-30T05:09:12.259Z,7.05
2023-03-30T05:11:40.171Z,7.60
2023-03-30T05:14:08.210Z,7.79
2023-03-30T05:16:36.797Z,8.61
2023-03-30T05:19:06.201Z,9.67
2023-03-30T05:21:34.156Z,10.92
2023-03-30T05:24:02.123Z,12.00
2023-03-30T05:26:30.080Z,12.96
2023-03-30T05:28:58.116Z,13.52
2023-03-30T05:31:26.139Z,13.70
2023-03-30T05:33:54.727Z,13.78
2023-03-30T05:36:24.108Z,13.85
2023-03-30T05:38:52.561Z,12.98
2023-03-30T05:41:20.674Z,11.68
2023-03-30T05:43:49.153Z,11.24
2023-03-30T05:46:17.353Z,10.70
2023-03-30T05:48:45.473Z,9.23
2023-03-30T05:51:13.430Z,8.59
2023-03-30T05:53:42.717Z,10.03
2023-03-30T05:56:11.580Z,11.02
2023-03-30T05:58:39.611Z,11.11
2023-03-30T06:01:09.466Z,12.12
2023-03-30T06:03:39.164Z,12.40
2023-03-30T06:06:08.010Z,12.55
2023-03-30T06:08:36.166Z,11.93
2023-03-30T06:11:06.259Z,11.48
2023-03-30T06:13:34.437Z,11.30
2023-03-30T06:16:03.680Z,10.26
2023-03-30T06:18:31.891Z,10.38
2023-03-30T06:21:02.538Z,11.02
2023-03-30T06:23:31.109Z,11.10
2023-03-30T06:25:59.634Z,10.81
2023-03-30T06:28:28.994Z,10.44
2023-03-30T06:30:56.956Z,10.07
2023-03-30T06:33:26.056Z,9.40
2023-03-30T06:35:54.415Z,9.24
2023-03-30T06:38:22.817Z,9.43
2023-03-30T06:40:51.408Z,9.89
2023-03-30T06:43:20.593Z,9.46
2023-03-30T06:45:53.081Z,10.09
2023-03-30T06:48:22.568Z,10.41
2023-03-30T06:50:50.598Z,10.77
2023-03-30T06:53:18.585Z,11.07
2023-03-30T06:55:46.595Z,11.13
2023-03-30T06:58:14.545Z,11.31
2023-03-30T07:00:42.658Z,10.89
2023-03-30T07:03:12.022Z,10.43
2023-03-30T07:05:40.491Z,10.74
2023-03-30T07:08:08.612Z,10.82
2023-03-30T07:10:36.577Z,10.46
2023-03-30T07:13:04.697Z,10.36
2023-03-30T07:15:32.668Z,11.49
2023-03-30T07:18:00.699Z,12.32
2023-03-30T07:20:30.082Z,12.29
2023-03-30T07:22:58.100Z,13.26
2023-03-30T07:25:26.694Z,13.63
2023-03-30T07:27:54.633Z,13.57
2023-03-30T07:30:23.036Z,13.05
2023-03-30T07:32:51.477Z,13.05
2023-03-30T07:35:19.616Z,13.11
2023-03-30T07:37:51.049Z,13.11
2023-03-30T07:40:19.549Z,13.58
2023-03-30T07:42:47.910Z,13.58
2023-03-30T07:45:16.689Z,13.12
2023-03-30T07:47:44.750Z,13.10
2023-03-30T07:50:12.933Z,12.62
2023-03-30T07:52:40.852Z,12.34
2023-03-30T07:55:11.125Z,12.09
2023-03-30T07:57:39.151Z,12.51
2023-03-30T08:00:10.412Z,12.94
2023-03-30T08:02:39.069Z,13.15
2023-03-30T08:05:07.753Z,13.12
2023-03-30T08:07:36.724Z,12.87
2023-03-30T08:10:05.173Z,12.91
2023-03-30T08:12:36.521Z,12.34
2023-03-30T08:15:04.598Z,11.91
2023-03-30T08:17:32.641Z,11.87
2023-03-30T08:20:01.916Z,11.76
2023-03-30T08:22:29.889Z,11.81
2023-03-30T08:24:57.842Z,11.96
2023-03-30T08:27:25.863Z,12.02
2023-03-30T08:29:55.248Z,12.24
2023-03-30T08:32:23.844Z,12.16
2023-03-30T08:34:53.870Z,12.18
2023-03-30T08:37:21.830Z,12.13
2023-03-30T08:39:49.796Z,12.13
2023-03-30T08:42:44.722Z,12.00
2023-03-30T08:45:14.187Z,12.13
2023-03-30T08:47:43.927Z,12.49
2023-03-30T08:50:14.108Z,12.76
2023-03-30T08:52:43.113Z,13.09
2023-03-30T08:55:16.816Z,12.98
2023-03-30T08:57:48.311Z,12.94
2023-03-30T09:00:24.652Z,13.04
2023-03-30T09:02:54.296Z,13.18
2023-03-30T09:05:24.001Z,13.19
2023-03-30T09:07:56.240Z,13.27
2023-03-30T09:10:24.214Z,13.54
2023-03-30T09:12:52.617Z,13.54
2023-03-30T09:15:23.965Z,13.76
2023-03-30T09:17:53.686Z,13.87
2023-03-30T09:20:23.495Z,14.36
2023-03-30T09:22:51.966Z,14.68
2023-03-30T09:25:21.585Z,14.67
2023-03-30T09:27:55.721Z,14.50
2023-03-30T09:30:27.682Z,14.40
2023-03-30T09:33:00.484Z,14.59
2023-03-30T09:35:34.414Z,14.65
2023-03-30T09:38:04.079Z,15.09
2023-03-30T09:40:46.216Z,15.08
2023-03-30T09:43:16.197Z,14.96
2023-03-30T09:45:45.834Z,15.02
2023-03-30T09:48:13.830Z,14.86
2023-03-30T09:50:42.777Z,14.86
2023-03-30T09:53:19.972Z,14.95
2023-03-30T09:55:56.716Z,15.28
2023-03-30T09:58:28.527Z,15.13
2023-03-30T10:01:05.108Z,15.17
2023-03-30T10:03:33.511Z,15.03
2023-03-30T10:06:03.316Z,15.11
2023-03-30T10:08:31.465Z,15.19
2023-03-30T10:11:00.728Z,15.17
2023-03-30T10:13:29.718Z,15.08
2023-03-30T10:15:57.713Z,15.13
2023-03-30T10:18:29.446Z,14.84
2023-03-30T10:21:02.754Z,14.80
2023-03-30T10:23:33.357Z,14.52
2023-03-30T10:26:03.814Z,14.67
2023-03-30T10:28:33.947Z,15.14
2023-03-30T10:31:03.501Z,15.40
2023-03-30T10:33:32.990Z,15.46
2023-03-30T10:36:02.224Z,15.19
2023-03-30T10:38:32.419Z,15.46
2023-03-30T10:41:02.840Z,15.78
2023-03-30T10:43:31.990Z,16.06
2023-03-30T10:46:12.541Z,15.88
2023-03-30T10:49:13.501Z,16.36
2023-03-30T10:51:47.130Z,16.59
2023-03-30T10:54:17.929Z,16.94
2023-03-30T10:56:47.247Z,17.07
2023-03-30T10:59:37.731Z,17.52
2023-03-30T11:02:26.435Z,18.43
2023-03-30T11:04:59.558Z,19.40
2023-03-30T11:07:30.882Z,19.97
2023-03-30T11:10:01.352Z,19.60
2023-03-30T11:12:32.164Z,19.80
2023-03-30T11:15:01.191Z,19.69
2023-03-30T11:17:30.540Z,20.14
2023-03-30T11:20:01.809Z,19.70
2023-03-30T11:22:34.494Z,19.45
2023-03-30T11:25:02.552Z,19.93
2023-03-30T11:27:31.733Z,22.57
2023-03-30T11:30:01.814Z,22.80
2023-03-30T11:32:32.784Z,23.64
2023-03-30T11:35:07.924Z,24.02
2023-03-30T11:37:37.068Z,24.41
2023-03-30T11:40:11.929Z,24.33
2023-03-30T11:42:40.054Z,23.96
2023-03-30T11:45:18.670Z,23.38
2023-03-30T11:48:06.770Z,22.57
2023-03-30T11:50:53.843Z,21.71
2023-03-30T11:53:25.365Z,20.40
2023-03-30T11:56:07.931Z,19.96
2023-03-30T11:58:37.192Z,20.14
2023-03-30T12:01:14.609Z,20.66
2023-03-30T12:03:43.615Z,21.53
2023-03-30T12:06:24.266Z,22.62
2023-03-30T12:09:02.032Z,23.15
2023-03-30T12:11:34.095Z,23.98
2023-03-30T12:14:02.126Z,25.44
2023-03-30T12:16:31.926Z,25.99
2023-03-30T12:19:06.750Z,25.05
2023-03-30T12:21:37.590Z,26.21
2023-03-30T12:24:09.650Z,27.71
2023-03-30T12:26:38.826Z,28.75
2023-03-30T12:32:07.569Z,28.62
2023-03-30T12:34:36.361Z,28.81
2023-03-30T12:37:10.213Z,26.40
2023-03-30T12:39:44.924Z,23.25
2023-03-30T12:42:26.310Z,21.13
2023-03-30T12:45:06.922Z,19.62
2023-03-30T12:47:42.300Z,19.01
2023-03-30T12:50:30.372Z,17.95
2023-03-30T12:53:11.710Z,17.50
2023-03-30T12:55:43.718Z,16.99
2023-03-30T12:58:24.496Z,16.53
2023-03-30T13:00:59.016Z,16.33
2023-03-30T13:03:31.581Z,15.96
2023-03-30T13:06:00.128Z,15.83
2023-03-30T13:08:32.458Z,15.77
2023-03-30T13:11:08.403Z,15.46
2023-03-30T13:14:15.550Z,15.15
2023-03-30T13:17:06.326Z,14.98
2023-03-30T13:19:45.582Z,14.92
2023-03-30T13:22:25.325Z,14.81
2023-03-30T13:24:57.858Z,14.79
2023-03-30T13:27:28.312Z,14.70
2023-03-30T13:29:57.448Z,14.65
2023-03-30T13:32:38.026Z,14.50
2023-03-30T13:35:26.808Z,14.43
2023-03-30T13:38:31.043Z,14.51
2023-03-30T13:41:05.972Z,14.35
2023-03-30T13:43:44.078Z,14.33
2023-03-30T13:46:17.598Z,14.27
2023-03-30T13:48:53.862Z,14.19
2023-03-30T13:51:24.317Z,14.22
2023-03-30T13:53:54.014Z,14.14
2023-03-30T13:56:23.465Z,14.13
2023-03-30T13:58:52.391Z,14.03
2023-03-30T14:01:21.373Z,14.12
2023-03-30T14:03:49.735Z,14.10
2023-03-30T14:06:19.067Z,14.13
2023-03-30T14:08:48.431Z,14.04
2023-03-30T14:11:17.646Z,13.98
2023-03-30T14:13:48.420Z,14.02
2023-03-30T14:16:20.308Z,14.01
2023-03-30T14:18:48.293Z,13.90
2023-03-30T14:21:17.263Z,13.98
2023-03-30T14:23:46.583Z,13.79
2023-03-30T14:26:19.341Z,13.81
2023-03-30T14:28:50.762Z,13.78
2023-03-30T14:31:19.771Z,13.84
2023-03-30T14:33:48.070Z,13.77
2023-03-30T14:36:16.708Z,13.78
2023-03-30T14:38:45.472Z,13.78
2023-03-30T14:41:16.872Z,13.72
2023-03-30T14:43:48.710Z,13.70
2023-03-30T14:46:16.804Z,13.56
2023-03-30T14:48:45.471Z,13.57
2023-03-30T14:51:24.928Z,13.39
2023-03-30T14:53:53.205Z,13.41
2023-03-30T14:56:21.398Z,13.30
2023-03-30T14:58:51.338Z,13.27
2023-03-30T15:01:21.570Z,13.08
2023-03-30T15:03:49.648Z,13.23
2023-03-30T15:06:24.804Z,13.27
2023-03-30T15:08:52.853Z,13.09
2023-03-30T15:11:22.092Z,12.95
2023-03-30T15:13:52.467Z,13.12
2023-03-30T15:16:23.287Z,13.03
2023-03-30T15:18:51.795Z,13.03
2023-03-30T15:21:20.088Z,12.84
2023-03-30T15:23:48.876Z,12.90
2023-03-30T15:26:16.824Z,12.91
2023-03-30T15:28:45.657Z,12.85
2023-03-30T15:31:16.230Z,12.98
2023-03-30T15:33:45.234Z,12.90
2023-03-30T15:36:14.197Z,12.89
2023-03-30T15:38:47.815Z,12.78
2023-03-30T15:41:16.162Z,12.73
2023-03-30T15:43:57.598Z,12.64
2023-03-30T15:46:28.094Z,12.58
2023-03-30T15:48:56.296Z,12.54
2023-03-30T15:51:27.688Z,12.53
2023-03-30T15:53:56.749Z,12.49
2023-03-30T15:56:26.808Z,12.48
2023-03-30T15:58:54.878Z,12.52
2023-03-30T16:01:23.435Z,12.47
2023-03-30T16:03:55.604Z,12.41
2023-03-30T16:06:23.626Z,12.38
2023-03-30T16:08:51.565Z,12.19
2023-03-30T16:11:20.879Z,12.13
2023-03-30T16:13:49.434Z,12.00
2023-03-30T16:16:18.591Z,11.89
2023-03-30T16:18:46.724Z,11.70
2023-03-30T16:21:16.122Z,11.59
2023-03-30T16:23:44.059Z,11.44
2023-03-30T16:26:12.490Z,11.33
2023-03-30T16:28:42.670Z,11.26
2023-03-30T16:31:14.154Z,11.14
2023-03-30T16:33:42.124Z,11.02
2023-03-30T16:36:12.423Z,10.87
2023-03-30T16:38:41.837Z,10.75
2023-03-30T16:41:11.360Z,10.61
2023-03-30T16:43:39.322Z,10.49
2023-03-30T16:46:07.389Z,10.40
2023-03-30T16:48:35.544Z,10.27
2023-03-30T16:51:03.655Z,10.14
2023-03-30T16:53:32.025Z,10.01
2023-03-30T16:56:01.387Z,9.88
2023-03-30T16:58:29.529Z,9.45
2023-03-30T17:01:03.924Z,9.67
2023-03-30T17:03:32.607Z,9.55
2023-03-30T17:06:00.606Z,9.42
2023-03-30T17:08:29.158Z,9.32
2023-03-30T17:10:58.443Z,9.20
2023-03-30T17:13:27.834Z,9.09
2023-03-30T17:15:55.924Z,8.96
2023-03-30T17:18:24.379Z,8.85
2023-03-30T17:20:53.112Z,8.73
2023-03-30T17:23:21.567Z,8.60
2023-03-30T17:25:49.702Z,8.48
2023-03-30T17:28:21.293Z,8.39
2023-03-30T17:30:51.058Z,8.31
2023-03-30T17:33:19.045Z,8.00
2023-03-30T17:35:48.284Z,8.13
2023-03-30T17:38:16.368Z,8.17
2023-03-30T17:40:44.867Z,8.14
2023-03-30T17:43:12.854Z,8.06
2023-03-30T17:45:41.073Z,8.01
2023-03-30T17:48:13.748Z,7.96
2023-03-30T17:50:43.631Z,7.92
2023-03-30T17:53:13.411Z,7.93
2023-03-30T17:55:41.418Z,7.91
2023-03-30T17:58:14.989Z,7.88
2023-03-30T18:00:42.972Z,7.86
2023-03-30T18:03:12.363Z,7.79
2023-03-30T18:05:40.371Z,7.79
2023-03-30T18:08:11.293Z,7.74
2023-03-30T18:10:40.024Z,7.73
2023-03-30T18:13:07.989Z,7.81
2023-03-30T18:15:35.928Z,7.88
2023-03-30T18:18:03.991Z,7.90
2023-03-30T18:20:34.223Z,7.96
2023-03-30T18:23:02.141Z,8.06
2023-03-30T18:25:32.750Z,8.17
2023-03-30T18:28:01.278Z,8.23
2023-03-30T18:30:29.995Z,8.30
2023-03-30T18:32:58.160Z,8.37
2023-03-30T18:35:26.932Z,8.43
2023-03-30T18:37:56.314Z,8.49
2023-03-30T18:40:26.396Z,8.53
2023-03-30T18:42:54.825Z,8.60
2023-03-30T18:45:23.857Z,8.55
2023-03-30T18:47:51.820Z,8.65
2023-03-30T18:50:22.211Z,8.67
2023-03-30T18:52:50.159Z,8.71
2023-03-30T18:55:19.696Z,8.75
2023-03-30T18:57:47.647Z,8.79
2023-03-30T19:00:21.560Z,8.74
2023-03-30T19:02:49.932Z,8.76
2023-03-30T19:05:19.042Z,8.77
2023-03-30T19:07:47.002Z,8.75
2023-03-30T19:10:15.930Z,8.71
2023-03-30T19:12:45.682Z,8.69
2023-03-30T19:15:19.174Z,8.69
2023-03-30T19:17:47.529Z,8.74
2023-03-30T19:20:15.876Z,8.81
2023-03-30T19:22:43.842Z,8.87
2023-03-30T19:25:12.081Z,8.87
2023-03-30T19:27:46.485Z,8.95
2023-03-30T19:30:22.237Z,9.02
2023-03-30T19:32:50.913Z,9.01
2023-03-30T19:35:18.977Z,9.20
2023-03-30T19:37:47.224Z,9.28
2023-03-30T19:40:16.370Z,9.24
2023-03-30T19:42:44.340Z,9.43
2023-03-30T19:45:12.856Z,9.52
2023-03-30T19:47:43.716Z,9.56
2023-03-30T19:50:15.440Z,9.56
2023-03-30T19:52:43.624Z,9.56
2023-03-30T19:55:11.692Z,9.54
2023-03-30T19:57:39.662Z,9.56
2023-03-30T20:00:12.656Z,9.58
2023-03-30T20:02:42.222Z,9.62
2023-03-30T20:05:12.999Z,9.53
2023-03-30T20:07:41.110Z,9.53
2023-03-30T20:10:11.246Z,9.63
2023-03-30T20:12:39.566Z,9.65
2023-03-30T20:15:09.578Z,9.72
2023-03-30T20:17:38.789Z,9.81
2023-03-30T20:20:10.735Z,9.85
2023-03-30T20:22:40.671Z,9.93
2023-03-30T20:25:13.404Z,9.99
2023-03-30T20:27:41.574Z,9.97
2023-03-30T20:30:11.772Z,9.96
2023-03-30T20:32:40.082Z,9.97
2023-03-30T20:35:10.205Z,9.97
2023-03-30T20:37:38.161Z,9.96
2023-03-30T20:40:09.960Z,10.00
2023-03-30T20:42:40.012Z,9.98
2023-03-30T20:45:09.422Z,9.96
2023-03-30T20:47:37.430Z,9.88
2023-03-30T20:50:05.850Z,9.92
2023-03-30T20:52:35.144Z,9.83
2023-03-30T20:55:03.142Z,9.75
2023-03-30T20:57:31.319Z,9.76
2023-03-30T21:00:00.772Z,9.73
2023-03-30T21:02:30.377Z,9.65
2023-03-30T21:04:59.856Z,9.64
2023-03-30T21:07:27.796Z,9.53
2023-03-30T21:09:57.125Z,9.51
2023-03-30T21:12:25.104Z,9.47
2023-03-30T21:14:53.084Z,9.47
2023-03-30T21:17:21.887Z,9.47
2023-03-30T21:19:49.871Z,9.46
2023-03-30T21:22:18.996Z,9.46
2023-03-30T21:24:46.912Z,9.45
2023-03-30T21:27:16.308Z,9.40
2023-03-30T21:29:44.286Z,9.51
2023-03-30T21:32:12.211Z,9.62
2023-03-30T21:34:40.106Z,9.74
2023-03-30T21:37:08.138Z,9.93
2023-03-30T21:39:36.174Z,10.05
2023-03-30T21:42:05.310Z,10.11
2023-03-30T21:44:36.222Z,10.23
2023-03-30T21:47:04.227Z,10.22
2023-03-30T21:49:33.066Z,10.11
2023-03-30T21:52:01.077Z,10.03
2023-03-30T21:54:29.025Z,9.90
2023-03-30T21:56:57.005Z,9.79
2023-03-30T21:59:24.975Z,9.81
2023-03-30T22:01:54.317Z,9.83
2023-03-30T22:04:22.294Z,9.75
2023-03-30T22:06:50.498Z,9.67
2023-03-30T22:09:18.461Z,9.58
2023-03-30T22:11:46.535Z,9.62
2023-03-30T22:14:14.487Z,9.96
2023-03-30T22:16:42.805Z,10.23
2023-03-30T22:19:12.246Z,10.17
2023-03-30T22:21:40.168Z,10.09
2023-03-30T22:24:08.777Z,9.88
2023-03-30T22:26:36.820Z,9.75
2023-03-30T22:29:04.936Z,9.53
2023-03-30T22:31:32.981Z,9.33
2023-03-30T22:34:01.053Z,9.12
2023-03-30T22:36:30.970Z,8.83
2023-03-30T22:38:59.286Z,8.69
2023-03-30T22:41:27.200Z,8.41
2023-03-30T22:43:56.205Z,8.28
2023-03-30T22:46:24.289Z,8.08
2023-03-30T22:48:55.754Z,8.01
2023-03-30T22:51:26.405Z,7.85
2023-03-30T22:53:56.483Z,7.86
2023-03-30T22:56:24.405Z,7.82
2023-03-30T22:58:52.505Z,7.85
2023-03-30T23:01:21.567Z,7.78
2023-03-30T23:03:49.669Z,7.77
2023-03-30T23:06:19.208Z,7.76
2023-03-30T23:08:48.620Z,7.70
2023-03-30T23:11:21.563Z,7.66
2023-03-30T23:13:49.638Z,7.56
2023-03-30T23:16:17.571Z,7.46
2023-03-30T23:18:45.528Z,7.36
2023-03-30T23:21:14.144Z,7.27
2023-03-30T23:23:42.275Z,7.16
2023-03-30T23:26:10.870Z,7.08
2023-03-30T23:28:41.819Z,7.02
2023-03-30T23:31:10.686Z,6.96
2023-03-30T23:33:38.800Z,7.02
2023-03-30T23:36:08.100Z,7.04
2023-03-30T23:38:37.561Z,7.06
2023-03-30T23:41:06.086Z,7.01
2023-03-30T23:43:34.054Z,7.03
2023-03-30T23:46:03.521Z,6.93
2023-03-30T23:48:31.859Z,6.87
2023-03-30T23:50:59.857Z,6.83
2023-03-30T23:53:27.775Z,6.75
2023-03-30T23:55:55.748Z,6.69
2023-03-30T23:58:23.704Z,6.59
